createdAt,value
2019-06-26T00:01:36.473Z,5.08
2019-06-26T00:04:05.678Z,5.58
2019-06-26T00:06:35.041Z,5.40
2019-06-26T00:09:04.723Z,5.03
2019-06-26T00:11:34.178Z,5.45
2019-06-26T00:14:04.052Z,5.42
2019-06-26T00:16:33.407Z,5.90
2019-06-26T00:19:02.802Z,5.90
2019-06-26T00:21:32.397Z,5.90
2019-06-26T00:24:01.802Z,6.03
2019-06-26T00:26:31.124Z,5.75
2019-06-26T00:29:00.475Z,5.72
2019-06-26T00:31:29.857Z,5.30
2019-06-26T00:33:59.180Z,5.25
2019-06-26T00:36:28.578Z,5.78
2019-06-26T00:38:58.057Z,5.10
2019-06-26T00:41:28.381Z,5.00
2019-06-26T00:43:57.772Z,5.62
2019-06-26T00:46:26.990Z,5.50
2019-06-26T00:48:56.241Z,5.62
2019-06-26T00:51:25.647Z,5.67
2019-06-26T00:53:54.993Z,5.20
2019-06-26T00:56:24.215Z,5.87
2019-06-26T00:58:53.376Z,5.30
2019-06-26T01:01:22.765Z,6.05
2019-06-26T01:03:53.514Z,5.70
2019-06-26T01:06:40.343Z,5.65
2019-06-26T01:09:09.733Z,5.62
2019-06-26T01:11:38.999Z,5.28
2019-06-26T01:14:08.494Z,5.85
2019-06-26T01:16:37.745Z,6.03
2019-06-26T01:19:06.973Z,6.30
2019-06-26T01:21:36.362Z,5.70
2019-06-26T01:24:05.674Z,5.37
2019-06-26T01:26:35.350Z,5.85
2019-06-26T01:29:04.705Z,5.70
2019-06-26T01:31:33.970Z,5.90
2019-06-26T01:34:03.142Z,5.53
2019-06-26T01:36:32.282Z,5.97
2019-06-26T01:39:01.648Z,6.03
2019-06-26T01:41:32.606Z,5.42
2019-06-26T01:44:14.407Z,5.90
2019-06-26T01:46:32.895Z,5.83
2019-06-26T01:49:02.198Z,5.42
2019-06-26T01:51:32.448Z,5.85
2019-06-26T01:54:03.738Z,5.87
2019-06-26T01:56:33.962Z,5.58
2019-06-26T01:59:02.888Z,6.28
2019-06-26T02:01:32.085Z,5.78
2019-06-26T02:04:01.318Z,5.95
2019-06-26T02:06:30.207Z,5.60
2019-06-26T02:08:58.924Z,5.60
2019-06-26T02:11:27.891Z,5.78
2019-06-26T02:13:57.206Z,5.80
2019-06-26T02:16:26.357Z,6.10
2019-06-26T02:18:59.039Z,6.33
2019-06-26T02:21:28.160Z,6.10
2019-06-26T02:23:57.175Z,6.20
2019-06-26T02:26:25.975Z,5.53
2019-06-26T02:28:55.127Z,5.50
2019-06-26T02:31:23.888Z,6.15
2019-06-26T02:33:52.653Z,6.40
2019-06-26T02:36:21.444Z,6.37
2019-06-26T02:38:50.247Z,6.37
2019-06-26T02:41:19.265Z,6.20
2019-06-26T02:43:48.122Z,6.33
2019-06-26T02:46:17.332Z,6.53
2019-06-26T02:48:46.369Z,6.00
2019-06-26T02:51:15.671Z,6.28
2019-06-26T02:53:45.016Z,5.95
2019-06-26T02:56:14.085Z,5.67
2019-06-26T02:58:43.148Z,6.05
2019-06-26T03:01:12.279Z,5.97
2019-06-26T03:03:41.669Z,6.28
2019-06-26T03:06:10.558Z,6.30
2019-06-26T03:08:39.828Z,5.87
2019-06-26T03:11:10.086Z,6.17
2019-06-26T03:13:39.280Z,6.03
2019-06-26T03:16:08.037Z,6.05
2019-06-26T03:18:37.005Z,6.22
2019-06-26T03:21:06.158Z,6.17
2019-06-26T03:23:35.056Z,6.83
2019-06-26T03:26:04.381Z,6.90
2019-06-26T03:28:33.390Z,6.30
2019-06-26T03:31:02.190Z,6.78
2019-06-26T03:33:31.005Z,6.50
2019-06-26T03:36:00.180Z,7.00
2019-06-26T03:38:29.239Z,6.40
2019-06-26T03:40:58.365Z,6.90
2019-06-26T03:43:27.574Z,7.33
2019-06-26T03:45:56.858Z,6.90
2019-06-26T03:48:26.082Z,6.87
2019-06-26T03:50:55.353Z,7.20
2019-06-26T03:53:24.519Z,6.65
2019-06-26T03:55:53.376Z,6.78
2019-06-26T03:58:22.418Z,6.65
2019-06-26T04:00:51.767Z,6.37
2019-06-26T04:03:20.901Z,6.90
2019-06-26T04:05:50.509Z,6.53
2019-06-26T04:08:21.527Z,6.80
2019-06-26T04:10:50.843Z,6.47
2019-06-26T04:13:19.620Z,7.42
2019-06-26T04:15:50.923Z,7.60
2019-06-26T04:18:19.209Z,8.15
2019-06-26T04:20:48.546Z,7.42
2019-06-26T04:23:17.803Z,7.33
2019-06-26T04:25:46.947Z,7.67
2019-06-26T04:28:16.105Z,7.95
2019-06-26T04:30:45.340Z,8.25
2019-06-26T04:33:14.711Z,7.55
2019-06-26T04:35:44.148Z,7.70
2019-06-26T04:38:13.069Z,7.58
2019-06-26T04:40:42.248Z,8.25
2019-06-26T04:43:11.592Z,7.95
2019-06-26T04:45:54.146Z,7.97
2019-06-26T04:48:11.556Z,7.83
2019-06-26T04:50:40.864Z,8.33
2019-06-26T04:53:09.996Z,7.70
2019-06-26T04:55:39.349Z,7.87
2019-06-26T04:58:08.578Z,8.00
2019-06-26T05:00:38.000Z,7.92
2019-06-26T05:03:07.221Z,8.05
2019-06-26T05:05:39.984Z,8.65
2019-06-26T05:08:07.925Z,9.23
2019-06-26T05:10:37.277Z,9.38
2019-06-26T05:13:07.995Z,8.38
2019-06-26T05:15:37.447Z,9.10
2019-06-26T05:18:06.990Z,9.80
2019-06-26T05:20:36.148Z,9.73
2019-06-26T05:23:05.080Z,9.18
2019-06-26T05:25:33.924Z,8.60
2019-06-26T05:28:02.878Z,9.40
2019-06-26T05:30:32.059Z,10.08
2019-06-26T05:33:01.405Z,9.75
2019-06-26T05:35:30.782Z,9.30
2019-06-26T05:37:59.929Z,9.50
2019-06-26T05:40:28.946Z,8.58
2019-06-26T05:42:58.427Z,9.10
2019-06-26T05:45:27.877Z,8.90
2019-06-26T05:47:57.100Z,8.28
2019-06-26T05:50:26.066Z,8.50
2019-06-26T05:52:55.179Z,8.95
2019-06-26T05:55:24.598Z,8.53
2019-06-26T05:57:53.713Z,8.23
2019-06-26T06:00:23.282Z,7.90
2019-06-26T06:02:53.999Z,7.97
2019-06-26T06:05:23.486Z,7.75
2019-06-26T06:07:52.778Z,8.48
2019-06-26T06:10:22.230Z,8.13
2019-06-26T06:12:51.151Z,8.65
2019-06-26T06:15:20.408Z,8.48
2019-06-26T06:17:49.454Z,9.08
2019-06-26T06:20:21.773Z,8.58
2019-06-26T06:22:50.812Z,8.40
2019-06-26T06:25:19.907Z,8.05
2019-06-26T06:27:49.341Z,8.73
2019-06-26T06:30:18.434Z,8.33
2019-06-26T06:32:47.638Z,9.30
2019-06-26T06:35:17.083Z,8.65
2019-06-26T06:37:46.219Z,8.10
2019-06-26T06:40:15.144Z,8.90
2019-06-26T06:42:44.259Z,8.38
2019-06-26T06:45:13.573Z,8.73
2019-06-26T06:47:42.655Z,8.23
2019-06-26T06:50:11.900Z,7.70
2019-06-26T06:52:40.638Z,8.50
2019-06-26T06:55:10.061Z,9.33
2019-06-26T06:57:39.217Z,7.40
2019-06-26T07:00:08.860Z,8.60
2019-06-26T07:02:38.244Z,9.28
2019-06-26T07:05:07.549Z,8.60
2019-06-26T07:07:36.802Z,7.58
2019-06-26T07:10:06.405Z,7.35
2019-06-26T07:12:36.826Z,8.48
2019-06-26T07:15:06.023Z,8.25
2019-06-26T07:17:34.946Z,8.10
2019-06-26T07:20:04.130Z,7.55
2019-06-26T07:22:32.995Z,6.72
2019-06-26T07:25:01.931Z,6.72
2019-06-26T07:27:31.552Z,6.97
2019-06-26T07:30:00.391Z,7.60
2019-06-26T07:32:30.665Z,6.67
2019-06-26T07:35:00.750Z,6.85
2019-06-26T07:37:29.561Z,6.70
2019-06-26T07:40:01.879Z,6.70
2019-06-26T07:42:29.072Z,6.67
2019-06-26T07:44:58.358Z,5.83
2019-06-26T07:47:41.968Z,6.05
2019-06-26T07:49:57.532Z,6.45
2019-06-26T07:52:26.796Z,5.85
2019-06-26T07:54:55.512Z,6.28
2019-06-26T07:57:24.679Z,6.08
2019-06-26T07:59:53.717Z,6.92
2019-06-26T08:02:23.211Z,6.17
2019-06-26T08:04:52.331Z,6.67
2019-06-26T08:07:21.151Z,5.78
2019-06-26T08:09:49.926Z,5.72
2019-06-26T08:12:18.887Z,5.97
2019-06-26T08:14:47.864Z,6.30
2019-06-26T08:17:16.642Z,5.47
2019-06-26T08:19:46.049Z,5.00
2019-06-26T08:22:15.312Z,6.72
2019-06-26T08:24:44.563Z,5.30
2019-06-26T08:27:13.480Z,5.85
2019-06-26T08:29:42.654Z,6.05
2019-06-26T08:32:11.945Z,5.10
2019-06-26T08:34:40.787Z,5.72
2019-06-26T08:37:09.817Z,5.75
2019-06-26T08:39:39.096Z,5.37
2019-06-26T08:42:08.466Z,5.10
2019-06-26T08:44:37.606Z,5.20
2019-06-26T08:47:06.598Z,4.67
2019-06-26T08:49:35.471Z,5.15
2019-06-26T08:52:04.815Z,5.67
2019-06-26T08:54:33.839Z,5.45
2019-06-26T08:57:03.130Z,5.12
2019-06-26T08:59:32.033Z,4.85
2019-06-26T09:02:01.068Z,5.20
2019-06-26T09:04:29.804Z,5.20
2019-06-26T09:06:58.522Z,4.53
2019-06-26T09:09:27.437Z,4.83
2019-06-26T09:11:56.241Z,4.70
2019-06-26T09:14:24.990Z,5.03
2019-06-26T09:16:54.261Z,5.00
2019-06-26T09:19:23.345Z,4.80
2019-06-26T09:21:52.400Z,5.00
2019-06-26T09:24:21.224Z,5.35
2019-06-26T09:26:50.511Z,4.50
2019-06-26T09:29:21.433Z,5.40
2019-06-26T09:31:50.000Z,5.03
2019-06-26T09:34:19.015Z,5.33
2019-06-26T09:36:47.881Z,5.42
2019-06-26T09:39:16.770Z,5.60
2019-06-26T09:41:45.430Z,5.62
2019-06-26T09:44:14.738Z,5.37
2019-06-26T09:46:43.727Z,4.70
2019-06-26T09:49:13.668Z,5.65
2019-06-26T09:51:42.299Z,5.35
2019-06-26T09:54:11.043Z,5.10
2019-06-26T09:56:40.042Z,5.50
2019-06-26T09:59:08.929Z,5.53
2019-06-26T10:01:37.651Z,5.42
2019-06-26T10:04:06.486Z,5.75
2019-06-26T10:06:35.394Z,5.40
2019-06-26T10:09:05.347Z,5.45
2019-06-26T10:11:34.143Z,5.58
2019-06-26T10:14:03.385Z,5.30
2019-06-26T10:16:32.630Z,4.65
2019-06-26T10:19:10.067Z,5.08
2019-06-26T10:21:32.304Z,4.75
2019-06-26T10:24:02.152Z,4.55
2019-06-26T10:26:32.470Z,3.83
2019-06-26T10:29:01.910Z,4.40
2019-06-26T10:31:30.916Z,3.72
2019-06-26T10:33:59.658Z,4.47
2019-06-26T10:36:28.754Z,4.87
2019-06-26T10:38:57.848Z,4.03
2019-06-26T10:41:26.704Z,4.40
2019-06-26T10:43:55.999Z,4.25
2019-06-26T10:46:24.771Z,4.53
2019-06-26T10:48:53.998Z,3.50
2019-06-26T10:51:22.862Z,3.05
2019-06-26T10:53:51.593Z,3.95
2019-06-26T10:56:20.522Z,4.17
2019-06-26T10:58:49.455Z,3.90
2019-06-26T11:01:18.166Z,3.35
2019-06-26T11:03:47.326Z,3.55
2019-06-26T11:06:16.090Z,3.22
2019-06-26T11:08:45.050Z,3.62
2019-06-26T11:11:13.749Z,2.95
2019-06-26T11:13:42.929Z,3.80
2019-06-26T11:16:13.165Z,3.37
2019-06-26T11:18:42.032Z,3.45
2019-06-26T11:21:11.001Z,3.33
2019-06-26T11:23:39.802Z,3.83
2019-06-26T11:26:09.016Z,3.42
2019-06-26T11:28:37.945Z,2.95
2019-06-26T11:31:06.745Z,3.55
2019-06-26T11:33:36.054Z,3.20
2019-06-26T11:36:04.903Z,3.00
2019-06-26T11:38:34.023Z,3.75
2019-06-26T11:41:02.724Z,3.62
2019-06-26T11:43:31.655Z,3.30
2019-06-26T11:46:00.507Z,3.08
2019-06-26T11:48:29.884Z,3.30
2019-06-26T11:50:59.871Z,3.25
2019-06-26T11:53:28.710Z,3.50
2019-06-26T11:55:57.379Z,3.50
2019-06-26T11:58:26.488Z,2.80
2019-06-26T12:00:55.796Z,3.67
2019-06-26T12:03:24.600Z,3.12
2019-06-26T12:05:53.549Z,3.05
2019-06-26T12:08:22.508Z,3.20
2019-06-26T12:10:52.090Z,4.12
2019-06-26T12:13:20.835Z,3.55
2019-06-26T12:15:49.699Z,3.60
2019-06-26T12:18:18.450Z,3.25
2019-06-26T12:20:47.229Z,4.08
2019-06-26T12:23:18.307Z,3.62
2019-06-26T12:25:47.364Z,3.98
2019-06-26T12:28:16.389Z,4.00
2019-06-26T12:30:45.683Z,3.67
2019-06-26T12:33:14.446Z,3.77
2019-06-26T12:35:43.347Z,3.55
2019-06-26T12:38:12.170Z,3.92
2019-06-26T12:40:41.343Z,3.35
2019-06-26T12:43:10.665Z,4.10
2019-06-26T12:45:39.423Z,3.67
2019-06-26T12:48:08.084Z,3.85
2019-06-26T12:50:37.001Z,3.35
2019-06-26T12:53:05.933Z,4.10
2019-06-26T12:55:35.591Z,3.02
2019-06-26T12:58:12.933Z,3.22
2019-06-26T13:00:34.829Z,4.10
2019-06-26T13:03:03.883Z,3.80
2019-06-26T13:05:32.869Z,3.65
2019-06-26T13:08:01.606Z,3.50
2019-06-26T13:10:30.455Z,3.62
2019-06-26T13:12:59.166Z,3.80
2019-06-26T13:15:28.242Z,3.80
2019-06-26T13:17:57.239Z,4.12
2019-06-26T13:20:27.816Z,3.87
2019-06-26T13:22:56.960Z,3.70
2019-06-26T13:25:25.675Z,3.42
2019-06-26T13:27:54.607Z,3.90
2019-06-26T13:30:27.325Z,4.08
2019-06-26T13:32:56.180Z,3.60
2019-06-26T13:35:25.141Z,4.35
2019-06-26T13:37:54.301Z,4.50
2019-06-26T13:40:23.349Z,3.60
2019-06-26T13:42:52.249Z,4.05
2019-06-26T13:45:21.104Z,4.95
2019-06-26T13:47:50.048Z,4.12
2019-06-26T13:50:19.205Z,4.10
2019-06-26T13:52:47.855Z,4.53
2019-06-26T13:55:16.632Z,4.25
2019-06-26T13:57:45.696Z,3.50
2019-06-26T14:00:14.648Z,3.47
2019-06-26T14:02:43.351Z,4.20
2019-06-26T14:05:12.622Z,4.08
2019-06-26T14:07:41.365Z,3.70
2019-06-26T14:10:10.035Z,3.83
2019-06-26T14:12:38.784Z,4.35
2019-06-26T14:15:07.600Z,3.90
2019-06-26T14:17:36.374Z,4.50
2019-06-26T14:20:05.520Z,4.22
2019-06-26T14:22:34.284Z,3.90
2019-06-26T14:25:03.176Z,4.65
2019-06-26T14:27:31.986Z,5.25
2019-06-26T14:30:00.692Z,3.98
2019-06-26T14:32:29.473Z,3.90
2019-06-26T14:34:58.510Z,3.33
2019-06-26T14:37:27.288Z,3.67
2019-06-26T14:39:55.965Z,3.52
2019-06-26T14:42:25.592Z,2.90
2019-06-26T14:44:54.360Z,3.40
2019-06-26T14:47:23.221Z,3.20
2019-06-26T14:49:51.975Z,2.90
2019-06-26T14:52:20.541Z,3.85
2019-06-26T14:54:49.240Z,3.60
2019-06-26T14:57:18.048Z,3.98
2019-06-26T14:59:46.741Z,3.95
2019-06-26T15:02:15.498Z,3.50
2019-06-26T15:04:46.134Z,4.15
2019-06-26T15:07:14.641Z,3.72
2019-06-26T15:09:43.397Z,3.70
2019-06-26T15:12:12.111Z,3.37
2019-06-26T15:14:40.895Z,3.25
2019-06-26T15:17:10.120Z,3.02
2019-06-26T15:19:38.969Z,3.45
2019-06-26T15:22:07.810Z,3.20
2019-06-26T15:24:39.573Z,4.05
2019-06-26T15:27:08.256Z,3.47
2019-06-26T15:29:36.956Z,2.98
2019-06-26T15:32:05.705Z,2.80
2019-06-26T15:34:36.322Z,2.90
2019-06-26T15:37:04.748Z,3.10
2019-06-26T15:39:33.545Z,3.20
2019-06-26T15:42:02.283Z,2.90
2019-06-26T15:44:31.026Z,3.08
2019-06-26T15:46:59.780Z,3.05
2019-06-26T15:49:28.589Z,3.20
2019-06-26T15:52:10.787Z,2.77
2019-06-26T15:54:27.729Z,3.08
2019-06-26T15:56:56.547Z,3.15
2019-06-26T15:59:25.225Z,3.08
2019-06-26T16:01:56.094Z,3.40
2019-06-26T16:04:24.887Z,3.10
2019-06-26T16:06:53.839Z,3.52
2019-06-26T16:09:22.706Z,3.20
2019-06-26T16:11:51.548Z,3.20
2019-06-26T16:14:20.291Z,3.50
2019-06-26T16:16:50.597Z,3.98
2019-06-26T16:19:20.023Z,3.80
2019-06-26T16:21:49.846Z,3.87
2019-06-26T16:24:20.107Z,4.10
2019-06-26T16:26:48.844Z,4.42
2019-06-26T16:29:18.511Z,4.10
2019-06-26T16:31:47.271Z,4.00
2019-06-26T16:34:16.046Z,4.15
2019-06-26T16:36:44.733Z,4.35
2019-06-26T16:39:13.522Z,3.90
2019-06-26T16:41:42.244Z,3.90
2019-06-26T16:44:11.007Z,4.22
2019-06-26T16:46:39.688Z,3.75
2019-06-26T16:49:08.372Z,3.55
2019-06-26T16:51:37.063Z,4.47
2019-06-26T16:54:05.819Z,3.33
2019-06-26T16:56:34.585Z,3.50
2019-06-26T16:59:03.262Z,3.65
2019-06-26T17:01:32.024Z,3.05
2019-06-26T17:04:00.748Z,3.05
2019-06-26T17:06:29.509Z,2.75
2019-06-26T17:08:58.195Z,3.20
2019-06-26T17:11:26.974Z,2.55
2019-06-26T17:13:55.982Z,2.70
2019-06-26T17:16:24.787Z,2.80
2019-06-26T17:18:55.153Z,2.83
2019-06-26T17:21:24.200Z,2.62
2019-06-26T17:23:53.269Z,2.85
2019-06-26T17:26:22.197Z,2.87
2019-06-26T17:28:51.015Z,2.95
2019-06-26T17:31:22.207Z,2.65
2019-06-26T17:33:50.969Z,2.62
2019-06-26T17:36:19.778Z,3.17
2019-06-26T17:38:48.441Z,3.22
2019-06-26T17:41:17.205Z,2.77
2019-06-26T17:43:45.968Z,3.02
2019-06-26T17:46:14.735Z,2.47
2019-06-26T17:48:43.383Z,3.30
2019-06-26T17:51:12.144Z,2.98
2019-06-26T17:53:40.845Z,2.47
2019-06-26T17:56:09.649Z,2.65
2019-06-26T17:58:40.842Z,2.33
2019-06-26T18:01:09.605Z,2.10
2019-06-26T18:03:38.411Z,2.25
2019-06-26T18:06:07.451Z,2.15
2019-06-26T18:08:36.166Z,2.20
2019-06-26T18:11:04.994Z,2.17
2019-06-26T18:13:34.130Z,2.30
2019-06-26T18:16:02.947Z,1.70
2019-06-26T18:18:33.855Z,1.77
2019-06-26T18:21:02.766Z,1.50
2019-06-26T18:23:38.032Z,1.30
2019-06-26T18:26:12.510Z,1.25
2019-06-26T18:28:32.605Z,1.25
2019-06-26T18:31:01.435Z,1.17
2019-06-26T18:33:30.301Z,1.30
2019-06-26T18:36:00.233Z,1.00
2019-06-26T18:38:29.081Z,1.32
2019-06-26T18:40:57.907Z,1.37
2019-06-26T18:43:26.673Z,1.60
2019-06-26T18:45:55.520Z,1.20
2019-06-26T18:48:25.124Z,1.10
2019-06-26T18:50:54.649Z,1.05
2019-06-26T18:53:23.562Z,1.47
2019-06-26T18:55:52.395Z,1.12
2019-06-26T18:58:21.118Z,1.30
2019-06-26T19:00:49.804Z,1.15
2019-06-26T19:03:18.569Z,1.42
2019-06-26T19:05:47.463Z,1.30
2019-06-26T19:08:16.251Z,1.45
2019-06-26T19:10:45.056Z,1.50
2019-06-26T19:13:13.812Z,1.52
2019-06-26T19:15:42.584Z,1.40
2019-06-26T19:18:11.336Z,1.40
2019-06-26T19:20:40.620Z,1.75
2019-06-26T19:23:12.991Z,1.80
2019-06-26T19:25:41.741Z,1.60
2019-06-26T19:28:10.541Z,1.65
2019-06-26T19:30:39.357Z,1.80
2019-06-26T19:33:08.173Z,1.77
2019-06-26T19:35:37.003Z,1.87
2019-06-26T19:38:05.757Z,1.60
2019-06-26T19:40:35.645Z,1.90
2019-06-26T19:43:04.508Z,1.60
2019-06-26T19:45:33.278Z,1.72
2019-06-26T19:48:02.126Z,1.65
2019-06-26T19:50:30.902Z,1.60
2019-06-26T19:53:04.302Z,1.72
2019-06-26T19:55:33.053Z,1.32
2019-06-26T19:58:01.802Z,1.37
2019-06-26T20:00:30.602Z,1.30
2019-06-26T20:02:59.358Z,1.20
2019-06-26T20:05:28.112Z,1.50
2019-06-26T20:07:56.839Z,1.40
2019-06-26T20:10:25.755Z,1.70
2019-06-26T20:12:54.481Z,1.32
2019-06-26T20:15:23.274Z,1.40
2019-06-26T20:17:52.110Z,1.57
2019-06-26T20:20:20.982Z,1.57
2019-06-26T20:22:49.870Z,1.25
2019-06-26T20:25:18.963Z,1.67
2019-06-26T20:27:47.655Z,1.20
2019-06-26T20:30:17.185Z,1.40
2019-06-26T20:32:46.358Z,1.20
2019-06-26T20:35:15.265Z,1.30
2019-06-26T20:37:44.091Z,0.80
2019-06-26T20:40:13.251Z,1.05
2019-06-26T20:42:42.057Z,1.02
2019-06-26T20:45:11.042Z,1.30
2019-06-26T20:47:39.862Z,1.05
2019-06-26T20:50:08.644Z,0.90
2019-06-26T20:52:38.470Z,1.20
2019-06-26T20:55:08.271Z,1.20
2019-06-26T20:57:37.095Z,1.57
2019-06-26T21:00:06.770Z,1.10
2019-06-26T21:02:36.666Z,1.30
2019-06-26T21:05:05.448Z,1.40
2019-06-26T21:07:34.721Z,1.37
2019-06-26T21:10:03.387Z,1.42
2019-06-26T21:12:32.150Z,1.42
2019-06-26T21:15:00.933Z,1.15
2019-06-26T21:17:29.703Z,0.98
2019-06-26T21:19:58.382Z,1.42
2019-06-26T21:22:27.187Z,1.12
2019-06-26T21:24:55.902Z,1.60
2019-06-26T21:27:24.575Z,1.40
2019-06-26T21:29:53.328Z,1.47
2019-06-26T21:32:22.045Z,1.42
2019-06-26T21:34:50.733Z,1.37
2019-06-26T21:37:19.496Z,1.25
2019-06-26T21:39:48.173Z,1.32
2019-06-26T21:42:16.854Z,1.32
2019-06-26T21:44:45.541Z,1.50
2019-06-26T21:47:14.330Z,1.50
2019-06-26T21:49:43.088Z,1.30
2019-06-26T21:52:11.846Z,1.30
2019-06-26T21:54:40.633Z,1.30
2019-06-26T21:57:27.308Z,1.10
2019-06-26T22:00:15.772Z,1.35
2019-06-26T22:03:04.003Z,1.20
2019-06-26T22:05:34.289Z,1.57
2019-06-26T22:08:04.733Z,1.10
2019-06-26T22:10:37.735Z,1.20
2019-06-26T22:13:06.516Z,1.35
2019-06-26T22:15:35.301Z,1.30
2019-06-26T22:18:04.044Z,1.12
2019-06-26T22:20:32.812Z,1.27
2019-06-26T22:23:01.574Z,1.32
2019-06-26T22:25:30.329Z,1.57
2019-06-26T22:27:59.284Z,1.62
2019-06-26T22:30:27.970Z,1.40
2019-06-26T22:32:56.636Z,1.22
2019-06-26T22:35:25.287Z,1.15
2019-06-26T22:37:53.985Z,1.47
2019-06-26T22:40:22.750Z,2.02
2019-06-26T22:42:51.538Z,1.60
2019-06-26T22:45:20.286Z,1.70
2019-06-26T22:47:48.942Z,1.47
2019-06-26T22:50:17.750Z,1.95
2019-06-26T22:52:46.445Z,1.62
2019-06-26T22:55:15.186Z,1.50
2019-06-26T22:57:43.930Z,1.60
2019-06-26T23:00:14.736Z,1.52
2019-06-26T23:02:43.500Z,1.80
2019-06-26T23:05:12.238Z,1.77
2019-06-26T23:07:41.024Z,1.50
2019-06-26T23:10:10.040Z,1.65
2019-06-26T23:12:38.731Z,1.27
2019-06-26T23:15:07.520Z,1.40
2019-06-26T23:17:36.288Z,1.20
2019-06-26T23:20:05.417Z,1.20
2019-06-26T23:22:34.149Z,1.10
2019-06-26T23:25:02.892Z,1.20
2019-06-26T23:27:31.646Z,1.20
2019-06-26T23:30:00.463Z,1.35
2019-06-26T23:32:29.168Z,1.12
2019-06-26T23:34:58.153Z,1.10
2019-06-26T23:37:26.934Z,1.52
2019-06-26T23:39:55.733Z,1.45
2019-06-26T23:42:24.490Z,1.70
2019-06-26T23:44:53.218Z,1.67
2019-06-26T23:47:21.888Z,1.50
2019-06-26T23:49:50.551Z,1.50
2019-06-26T23:52:19.212Z,1.50
2019-06-26T23:54:47.908Z,1.12
2019-06-26T23:57:16.584Z,1.35
2019-06-26T23:59:45.356Z,1.40
